sensor_id;sensor_type;location;lat;lon;timestamp;P1;durP1;ratioP1;P2;durP2;ratioP2
43124;SDS011;49182;50.788;7.318;2023-05-23T00:01:54;15.00;;;8.65;;
43124;SDS011;49182;50.788;7.318;2023-05-23T00:04:22;15.50;;;8.23;;
43124;SDS011;49182;50.788;7.318;2023-05-23T00:06:49;15.70;;;8.73;;
43124;SDS011;49182;50.788;7.318;2023-05-23T00:09:15;19.17;;;10.30;;
43124;SDS011;49182;50.788;7.318;2023-05-23T00:11:42;14.82;;;8.52;;
43124;SDS011;49182;50.788;7.318;2023-05-23T00:14:10;17.08;;;9.18;;
43124;SDS011;49182;50.788;7.318;2023-05-23T00:16:37;15.68;;;8.73;;
43124;SDS011;49182;50.788;7.318;2023-05-23T00:19:03;16.63;;;8.85;;
43124;SDS011;49182;50.788;7.318;2023-05-23T00:21:31;17.90;;;9.73;;
43124;SDS011;49182;50.788;7.318;2023-05-23T00:23:58;18.13;;;9.77;;
43124;SDS011;49182;50.788;7.318;2023-05-23T00:26:25;16.80;;;9.02;;
43124;SDS011;49182;50.788;7.318;2023-05-23T00:28:51;13.60;;;8.38;;
43124;SDS011;49182;50.788;7.318;2023-05-23T00:31:18;14.40;;;7.97;;
43124;SDS011;49182;50.788;7.318;2023-05-23T00:33:44;15.30;;;8.32;;
43124;SDS011;49182;50.788;7.318;2023-05-23T00:36:11;19.20;;;8.07;;
43124;SDS011;49182;50.788;7.318;2023-05-23T00:38:39;13.43;;;8.02;;
43124;SDS011;49182;50.788;7.318;2023-05-23T00:41:06;16.08;;;8.25;;
43124;SDS011;49182;50.788;7.318;2023-05-23T00:43:32;13.65;;;7.70;;
43124;SDS011;49182;50.788;7.318;2023-05-23T00:45:59;14.60;;;8.13;;
43124;SDS011;49182;50.788;7.318;2023-05-23T00:48:26;13.82;;;8.18;;
43124;SDS011;49182;50.788;7.318;2023-05-23T00:50:55;14.18;;;7.85;;
43124;SDS011;49182;50.788;7.318;2023-05-23T00:53:22;16.17;;;8.25;;
43124;SDS011;49182;50.788;7.318;2023-05-23T00:55:51;17.75;;;8.32;;
43124;SDS011;49182;50.788;7.318;2023-05-23T00:58:18;13.55;;;7.85;;
43124;SDS011;49182;50.788;7.318;2023-05-23T01:00:45;16.60;;;8.45;;
43124;SDS011;49182;50.788;7.318;2023-05-23T01:03:12;16.38;;;8.45;;
43124;SDS011;49182;50.788;7.318;2023-05-23T01:05:39;15.35;;;9.40;;
43124;SDS011;49182;50.788;7.318;2023-05-23T01:08:06;15.65;;;9.52;;
43124;SDS011;49182;50.788;7.318;2023-05-23T01:10:33;12.63;;;8.30;;
43124;SDS011;49182;50.788;7.318;2023-05-23T01:13:06;15.60;;;8.30;;
43124;SDS011;49182;50.788;7.318;2023-05-23T01:15:44;19.98;;;8.13;;
43124;SDS011;49182;50.788;7.318;2023-05-23T01:18:16;15.18;;;7.88;;
43124;SDS011;49182;50.788;7.318;2023-05-23T01:20:48;20.83;;;11.32;;
43124;SDS011;49182;50.788;7.318;2023-05-23T01:23:23;18.70;;;9.13;;
43124;SDS011;49182;50.788;7.318;2023-05-23T01:26:12;17.30;;;9.00;;
43124;SDS011;49182;50.788;7.318;2023-05-23T01:28:46;15.20;;;7.68;;
43124;SDS011;49182;50.788;7.318;2023-05-23T01:31:15;13.57;;;8.48;;
43124;SDS011;49182;50.788;7.318;2023-05-23T01:33:43;16.38;;;7.88;;
43124;SDS011;49182;50.788;7.318;2023-05-23T01:36:14;12.98;;;7.88;;
43124;SDS011;49182;50.788;7.318;2023-05-23T01:38:41;17.77;;;10.02;;
43124;SDS011;49182;50.788;7.318;2023-05-23T01:41:07;15.77;;;8.98;;
43124;SDS011;49182;50.788;7.318;2023-05-23T01:43:34;14.95;;;8.43;;
43124;SDS011;49182;50.788;7.318;2023-05-23T01:46:02;13.40;;;8.05;;
43124;SDS011;49182;50.788;7.318;2023-05-23T01:48:31;13.25;;;7.78;;
43124;SDS011;49182;50.788;7.318;2023-05-23T01:50:58;15.60;;;9.18;;
43124;SDS011;49182;50.788;7.318;2023-05-23T01:53:26;19.55;;;9.18;;
43124;SDS011;49182;50.788;7.318;2023-05-23T01:55:56;14.55;;;8.68;;
43124;SDS011;49182;50.788;7.318;2023-05-23T01:58:24;15.27;;;9.15;;
43124;SDS011;49182;50.788;7.318;2023-05-23T02:00:50;13.23;;;8.27;;
43124;SDS011;49182;50.788;7.318;2023-05-23T02:03:18;12.38;;;8.07;;
43124;SDS011;49182;50.788;7.318;2023-05-23T02:05:47;16.85;;;8.48;;
43124;SDS011;49182;50.788;7.318;2023-05-23T02:08:14;13.80;;;7.63;;
43124;SDS011;49182;50.788;7.318;2023-05-23T02:10:40;15.68;;;7.53;;
43124;SDS011;49182;50.788;7.318;2023-05-23T02:13:07;13.25;;;7.45;;
43124;SDS011;49182;50.788;7.318;2023-05-23T02:15:34;12.10;;;7.50;;
43124;SDS011;49182;50.788;7.318;2023-05-23T02:18:00;12.13;;;7.43;;
43124;SDS011;49182;50.788;7.318;2023-05-23T02:20:28;13.70;;;7.22;;
43124;SDS011;49182;50.788;7.318;2023-05-23T02:22:55;12.60;;;7.05;;
43124;SDS011;49182;50.788;7.318;2023-05-23T02:25:22;12.00;;;7.05;;
43124;SDS011;49182;50.788;7.318;2023-05-23T02:27:48;14.25;;;7.18;;
43124;SDS011;49182;50.788;7.318;2023-05-23T02:30:15;11.55;;;6.93;;
43124;SDS011;49182;50.788;7.318;2023-05-23T02:32:42;11.75;;;7.07;;
43124;SDS011;49182;50.788;7.318;2023-05-23T02:35:08;11.77;;;7.50;;
43124;SDS011;49182;50.788;7.318;2023-05-23T02:37:36;10.25;;;6.57;;
43124;SDS011;49182;50.788;7.318;2023-05-23T02:40:04;12.07;;;7.50;;
43124;SDS011;49182;50.788;7.318;2023-05-23T02:42:31;12.10;;;7.68;;
43124;SDS011;49182;50.788;7.318;2023-05-23T02:44:59;11.20;;;7.68;;
43124;SDS011;49182;50.788;7.318;2023-05-23T02:47:26;11.20;;;7.53;;
43124;SDS011;49182;50.788;7.318;2023-05-23T02:49:52;11.10;;;7.40;;
43124;SDS011;49182;50.788;7.318;2023-05-23T02:52:19;10.93;;;7.15;;
43124;SDS011;49182;50.788;7.318;2023-05-23T02:54:47;9.88;;;6.75;;
43124;SDS011;49182;50.788;7.318;2023-05-23T02:57:14;9.70;;;6.50;;
43124;SDS011;49182;50.788;7.318;2023-05-23T02:59:41;9.95;;;6.65;;
43124;SDS011;49182;50.788;7.318;2023-05-23T03:02:07;9.90;;;6.15;;
43124;SDS011;49182;50.788;7.318;2023-05-23T03:04:34;12.18;;;7.55;;
43124;SDS011;49182;50.788;7.318;2023-05-23T03:07:01;10.30;;;6.78;;
43124;SDS011;49182;50.788;7.318;2023-05-23T03:09:29;9.50;;;6.75;;
43124;SDS011;49182;50.788;7.318;2023-05-23T03:11:57;11.52;;;7.03;;
43124;SDS011;49182;50.788;7.318;2023-05-23T03:14:24;10.73;;;6.97;;
43124;SDS011;49182;50.788;7.318;2023-05-23T03:16:51;10.68;;;7.25;;
43124;SDS011;49182;50.788;7.318;2023-05-23T03:19:17;11.23;;;7.28;;
43124;SDS011;49182;50.788;7.318;2023-05-23T03:21:44;10.32;;;6.97;;
43124;SDS011;49182;50.788;7.318;2023-05-23T03:24:11;8.95;;;6.68;;
43124;SDS011;49182;50.788;7.318;2023-05-23T03:26:38;10.88;;;7.40;;
43124;SDS011;49182;50.788;7.318;2023-05-23T03:29:06;9.40;;;6.88;;
43124;SDS011;49182;50.788;7.318;2023-05-23T03:31:33;7.97;;;5.88;;
43124;SDS011;49182;50.788;7.318;2023-05-23T03:34:00;9.35;;;6.15;;
43124;SDS011;49182;50.788;7.318;2023-05-23T03:36:27;10.02;;;6.38;;
43124;SDS011;49182;50.788;7.318;2023-05-23T03:38:54;9.55;;;6.30;;
43124;SDS011;49182;50.788;7.318;2023-05-23T03:41:20;10.27;;;6.00;;
43124;SDS011;49182;50.788;7.318;2023-05-23T03:43:48;8.95;;;6.32;;
43124;SDS011;49182;50.788;7.318;2023-05-23T03:46:16;8.15;;;5.63;;
43124;SDS011;49182;50.788;7.318;2023-05-23T03:48:43;8.20;;;5.65;;
43124;SDS011;49182;50.788;7.318;2023-05-23T03:51:10;9.93;;;5.80;;
43124;SDS011;49182;50.788;7.318;2023-05-23T03:53:37;8.18;;;5.28;;
43124;SDS011;49182;50.788;7.318;2023-05-23T03:56:04;7.70;;;4.90;;
43124;SDS011;49182;50.788;7.318;2023-05-23T03:58:31;9.73;;;4.88;;
43124;SDS011;49182;50.788;7.318;2023-05-23T04:01:03;7.68;;;4.90;;
43124;SDS011;49182;50.788;7.318;2023-05-23T04:03:31;8.60;;;4.82;;
43124;SDS011;49182;50.788;7.318;2023-05-23T04:06:00;7.55;;;4.53;;
43124;SDS011;49182;50.788;7.318;2023-05-23T04:08:27;6.78;;;4.25;;
43124;SDS011;49182;50.788;7.318;2023-05-23T04:10:54;8.23;;;4.38;;
43124;SDS011;49182;50.788;7.318;2023-05-23T04:13:23;7.38;;;4.05;;
43124;SDS011;49182;50.788;7.318;2023-05-23T04:15:50;9.95;;;4.28;;
43124;SDS011;49182;50.788;7.318;2023-05-23T04:18:18;6.90;;;4.25;;
43124;SDS011;49182;50.788;7.318;2023-05-23T04:20:48;7.60;;;4.22;;
43124;SDS011;49182;50.788;7.318;2023-05-23T04:23:14;7.03;;;4.38;;
43124;SDS011;49182;50.788;7.318;2023-05-23T04:25:48;6.55;;;4.28;;
43124;SDS011;49182;50.788;7.318;2023-05-23T04:28:20;6.88;;;4.28;;
43124;SDS011;49182;50.788;7.318;2023-05-23T04:30:47;7.93;;;4.95;;
43124;SDS011;49182;50.788;7.318;2023-05-23T04:33:16;8.75;;;4.68;;
43124;SDS011;49182;50.788;7.318;2023-05-23T04:35:44;7.95;;;4.32;;
43124;SDS011;49182;50.788;7.318;2023-05-23T04:38:12;8.07;;;4.90;;
43124;SDS011;49182;50.788;7.318;2023-05-23T04:40:39;8.63;;;5.00;;
43124;SDS011;49182;50.788;7.318;2023-05-23T04:43:33;8.75;;;4.80;;
43124;SDS011;49182;50.788;7.318;2023-05-23T04:46:12;9.02;;;4.63;;
43124;SDS011;49182;50.788;7.318;2023-05-23T04:48:42;9.90;;;4.75;;
43124;SDS011;49182;50.788;7.318;2023-05-23T04:51:08;8.60;;;4.93;;
43124;SDS011;49182;50.788;7.318;2023-05-23T04:53:41;9.48;;;5.07;;
43124;SDS011;49182;50.788;7.318;2023-05-23T04:56:09;9.38;;;5.32;;
43124;SDS011;49182;50.788;7.318;2023-05-23T04:58:37;8.10;;;5.07;;
43124;SDS011;49182;50.788;7.318;2023-05-23T05:01:05;7.30;;;4.88;;
43124;SDS011;49182;50.788;7.318;2023-05-23T05:03:32;8.88;;;5.28;;
43124;SDS011;49182;50.788;7.318;2023-05-23T05:05:59;9.13;;;5.68;;
43124;SDS011;49182;50.788;7.318;2023-05-23T05:08:25;10.68;;;5.35;;
43124;SDS011;49182;50.788;7.318;2023-05-23T05:10:54;8.52;;;5.28;;
43124;SDS011;49182;50.788;7.318;2023-05-23T05:13:21;10.77;;;5.65;;
43124;SDS011;49182;50.788;7.318;2023-05-23T05:15:50;12.15;;;6.30;;
43124;SDS011;49182;50.788;7.318;2023-05-23T05:18:17;10.68;;;5.40;;
43124;SDS011;49182;50.788;7.318;2023-05-23T05:20:44;8.93;;;5.63;;
43124;SDS011;49182;50.788;7.318;2023-05-23T05:23:12;11.70;;;5.65;;
43124;SDS011;49182;50.788;7.318;2023-05-23T05:25:39;10.88;;;5.47;;
43124;SDS011;49182;50.788;7.318;2023-05-23T05:28:07;10.90;;;5.80;;
43124;SDS011;49182;50.788;7.318;2023-05-23T05:30:39;13.40;;;6.50;;
43124;SDS011;49182;50.788;7.318;2023-05-23T05:33:06;11.05;;;5.63;;
43124;SDS011;49182;50.788;7.318;2023-05-23T05:35:33;10.30;;;6.30;;
43124;SDS011;49182;50.788;7.318;2023-05-23T05:38:01;10.77;;;6.47;;
43124;SDS011;49182;50.788;7.318;2023-05-23T05:40:28;10.68;;;6.32;;
43124;SDS011;49182;50.788;7.318;2023-05-23T05:42:54;12.23;;;6.57;;
43124;SDS011;49182;50.788;7.318;2023-05-23T05:45:24;10.80;;;7.03;;
43124;SDS011;49182;50.788;7.318;2023-05-23T05:47:52;10.90;;;6.85;;
43124;SDS011;49182;50.788;7.318;2023-05-23T05:50:21;10.25;;;6.82;;
43124;SDS011;49182;50.788;7.318;2023-05-23T05:52:48;13.60;;;7.32;;
43124;SDS011;49182;50.788;7.318;2023-05-23T05:55:15;16.73;;;7.50;;
43124;SDS011;49182;50.788;7.318;2023-05-23T05:57:45;12.05;;;6.90;;
43124;SDS011;49182;50.788;7.318;2023-05-23T06:00:13;12.85;;;7.13;;
43124;SDS011;49182;50.788;7.318;2023-05-23T06:02:51;11.93;;;6.63;;
43124;SDS011;49182;50.788;7.318;2023-05-23T06:05:28;12.10;;;6.97;;
43124;SDS011;49182;50.788;7.318;2023-05-23T06:07:55;12.02;;;7.10;;
43124;SDS011;49182;50.788;7.318;2023-05-23T06:10:22;11.98;;;6.93;;
43124;SDS011;49182;50.788;7.318;2023-05-23T06:12:49;10.38;;;6.70;;
43124;SDS011;49182;50.788;7.318;2023-05-23T06:15:16;11.25;;;6.97;;
43124;SDS011;49182;50.788;7.318;2023-05-23T06:17:44;12.55;;;7.28;;
43124;SDS011;49182;50.788;7.318;2023-05-23T06:20:13;16.45;;;7.82;;
43124;SDS011;49182;50.788;7.318;2023-05-23T06:22:43;12.10;;;7.13;;
43124;SDS011;49182;50.788;7.318;2023-05-23T06:25:09;12.90;;;7.47;;
43124;SDS011;49182;50.788;7.318;2023-05-23T06:27:36;12.23;;;7.53;;
43124;SDS011;49182;50.788;7.318;2023-05-23T06:30:03;11.75;;;7.32;;
43124;SDS011;49182;50.788;7.318;2023-05-23T06:32:30;12.65;;;6.47;;
43124;SDS011;49182;50.788;7.318;2023-05-23T06:34:57;13.63;;;7.60;;
43124;SDS011;49182;50.788;7.318;2023-05-23T06:37:25;12.23;;;7.00;;
43124;SDS011;49182;50.788;7.318;2023-05-23T06:39:51;11.18;;;6.88;;
43124;SDS011;49182;50.788;7.318;2023-05-23T06:42:18;12.43;;;6.85;;
43124;SDS011;49182;50.788;7.318;2023-05-23T06:44:54;14.90;;;8.00;;
43124;SDS011;49182;50.788;7.318;2023-05-23T06:47:21;10.23;;;6.55;;
43124;SDS011;49182;50.788;7.318;2023-05-23T06:49:48;10.82;;;6.53;;
43124;SDS011;49182;50.788;7.318;2023-05-23T06:52:15;14.25;;;9.52;;
43124;SDS011;49182;50.788;7.318;2023-05-23T06:54:43;12.93;;;8.00;;
43124;SDS011;49182;50.788;7.318;2023-05-23T06:57:10;14.45;;;8.02;;
43124;SDS011;49182;50.788;7.318;2023-05-23T06:59:37;18.08;;;10.65;;
43124;SDS011;49182;50.788;7.318;2023-05-23T07:02:04;17.08;;;10.80;;
43124;SDS011;49182;50.788;7.318;2023-05-23T07:04:30;22.38;;;11.48;;
43124;SDS011;49182;50.788;7.318;2023-05-23T07:07:02;16.10;;;9.90;;
43124;SDS011;49182;50.788;7.318;2023-05-23T07:09:29;16.77;;;10.32;;
43124;SDS011;49182;50.788;7.318;2023-05-23T07:12:07;17.33;;;10.77;;
43124;SDS011;49182;50.788;7.318;2023-05-23T07:14:37;15.85;;;9.93;;
43124;SDS011;49182;50.788;7.318;2023-05-23T07:17:04;17.05;;;11.38;;
43124;SDS011;49182;50.788;7.318;2023-05-23T07:19:32;16.88;;;10.50;;
43124;SDS011;49182;50.788;7.318;2023-05-23T07:21:59;20.13;;;12.13;;
43124;SDS011;49182;50.788;7.318;2023-05-23T07:24:28;17.15;;;11.20;;
43124;SDS011;49182;50.788;7.318;2023-05-23T07:26:55;16.80;;;10.68;;
43124;SDS011;49182;50.788;7.318;2023-05-23T07:29:25;19.55;;;11.52;;
43124;SDS011;49182;50.788;7.318;2023-05-23T07:31:52;21.23;;;12.52;;
43124;SDS011;49182;50.788;7.318;2023-05-23T07:34:21;21.88;;;12.57;;
43124;SDS011;49182;50.788;7.318;2023-05-23T07:36:54;17.35;;;11.68;;
43124;SDS011;49182;50.788;7.318;2023-05-23T07:39:23;18.27;;;11.20;;
43124;SDS011;49182;50.788;7.318;2023-05-23T07:41:52;16.67;;;10.98;;
43124;SDS011;49182;50.788;7.318;2023-05-23T07:44:18;21.13;;;11.82;;
43124;SDS011;49182;50.788;7.318;2023-05-23T07:46:51;19.30;;;11.32;;
43124;SDS011;49182;50.788;7.318;2023-05-23T07:49:18;20.52;;;11.48;;
43124;SDS011;49182;50.788;7.318;2023-05-23T07:51:45;19.95;;;10.77;;
43124;SDS011;49182;50.788;7.318;2023-05-23T07:54:12;17.38;;;10.65;;
43124;SDS011;49182;50.788;7.318;2023-05-23T07:56:42;19.25;;;10.40;;
43124;SDS011;49182;50.788;7.318;2023-05-23T07:59:09;16.85;;;9.75;;
43124;SDS011;49182;50.788;7.318;2023-05-23T08:01:35;15.35;;;9.68;;
43124;SDS011;49182;50.788;7.318;2023-05-23T08:04:06;17.75;;;10.93;;
43124;SDS011;49182;50.788;7.318;2023-05-23T08:06:38;17.55;;;10.13;;
43124;SDS011;49182;50.788;7.318;2023-05-23T08:09:18;15.30;;;10.90;;
43124;SDS011;49182;50.788;7.318;2023-05-23T08:11:49;16.60;;;10.73;;
43124;SDS011;49182;50.788;7.318;2023-05-23T08:14:17;15.27;;;10.23;;
43124;SDS011;49182;50.788;7.318;2023-05-23T08:16:52;19.02;;;10.15;;
43124;SDS011;49182;50.788;7.318;2023-05-23T08:19:24;15.48;;;10.10;;
43124;SDS011;49182;50.788;7.318;2023-05-23T08:21:51;18.50;;;10.27;;
43124;SDS011;49182;50.788;7.318;2023-05-23T08:24:17;17.27;;;10.25;;
43124;SDS011;49182;50.788;7.318;2023-05-23T08:26:44;14.35;;;9.57;;
43124;SDS011;49182;50.788;7.318;2023-05-23T08:29:12;15.95;;;9.77;;
43124;SDS011;49182;50.788;7.318;2023-05-23T08:31:40;13.95;;;9.75;;
43124;SDS011;49182;50.788;7.318;2023-05-23T08:34:09;17.13;;;10.27;;
43124;SDS011;49182;50.788;7.318;2023-05-23T08:36:39;19.25;;;10.10;;
43124;SDS011;49182;50.788;7.318;2023-05-23T08:39:09;16.33;;;9.65;;
43124;SDS011;49182;50.788;7.318;2023-05-23T08:41:49;14.90;;;10.10;;
43124;SDS011;49182;50.788;7.318;2023-05-23T08:44:15;16.30;;;9.90;;
43124;SDS011;49182;50.788;7.318;2023-05-23T08:46:50;14.90;;;9.68;;
43124;SDS011;49182;50.788;7.318;2023-05-23T08:49:37;14.93;;;11.07;;
43124;SDS011;49182;50.788;7.318;2023-05-23T08:52:06;19.27;;;11.63;;
43124;SDS011;49182;50.788;7.318;2023-05-23T08:54:38;16.92;;;11.85;;
43124;SDS011;49182;50.788;7.318;2023-05-23T08:57:07;20.88;;;12.85;;
43124;SDS011;49182;50.788;7.318;2023-05-23T08:59:40;18.55;;;11.93;;
43124;SDS011;49182;50.788;7.318;2023-05-23T09:02:07;21.10;;;12.75;;
43124;SDS011;49182;50.788;7.318;2023-05-23T09:04:36;19.17;;;12.90;;
43124;SDS011;49182;50.788;7.318;2023-05-23T09:07:11;16.58;;;11.75;;
43124;SDS011;49182;50.788;7.318;2023-05-23T09:12:12;18.63;;;9.68;;
43124;SDS011;49182;50.788;7.318;2023-05-23T09:14:39;17.88;;;10.30;;
43124;SDS011;49182;50.788;7.318;2023-05-23T09:17:08;15.00;;;10.10;;
43124;SDS011;49182;50.788;7.318;2023-05-23T09:19:39;18.15;;;9.90;;
43124;SDS011;49182;50.788;7.318;2023-05-23T09:22:19;14.55;;;9.90;;
43124;SDS011;49182;50.788;7.318;2023-05-23T09:24:58;14.13;;;10.05;;
43124;SDS011;49182;50.788;7.318;2023-05-23T09:27:26;17.52;;;10.85;;
43124;SDS011;49182;50.788;7.318;2023-05-23T09:29:53;23.00;;;14.13;;
43124;SDS011;49182;50.788;7.318;2023-05-23T09:32:20;20.00;;;12.93;;
43124;SDS011;49182;50.788;7.318;2023-05-23T09:34:53;22.45;;;14.15;;
43124;SDS011;49182;50.788;7.318;2023-05-23T09:37:25;20.50;;;13.68;;
43124;SDS011;49182;50.788;7.318;2023-05-23T09:39:54;20.17;;;14.05;;
43124;SDS011;49182;50.788;7.318;2023-05-23T09:42:21;23.17;;;12.82;;
43124;SDS011;49182;50.788;7.318;2023-05-23T09:44:48;23.55;;;14.60;;
43124;SDS011;49182;50.788;7.318;2023-05-23T09:47:15;20.67;;;14.45;;
43124;SDS011;49182;50.788;7.318;2023-05-23T09:49:42;20.52;;;12.95;;
43124;SDS011;49182;50.788;7.318;2023-05-23T09:52:09;19.67;;;13.30;;
43124;SDS011;49182;50.788;7.318;2023-05-23T09:54:37;20.50;;;12.60;;
43124;SDS011;49182;50.788;7.318;2023-05-23T09:57:04;20.58;;;12.32;;
43124;SDS011;49182;50.788;7.318;2023-05-23T09:59:37;20.38;;;12.48;;
43124;SDS011;49182;50.788;7.318;2023-05-23T10:02:05;17.75;;;10.57;;
43124;SDS011;49182;50.788;7.318;2023-05-23T10:04:33;18.38;;;11.55;;
43124;SDS011;49182;50.788;7.318;2023-05-23T10:07:03;17.90;;;11.40;;
43124;SDS011;49182;50.788;7.318;2023-05-23T10:09:32;17.00;;;11.60;;
43124;SDS011;49182;50.788;7.318;2023-05-23T10:15:02;18.70;;;11.52;;
43124;SDS011;49182;50.788;7.318;2023-05-23T10:17:31;17.50;;;10.55;;
43124;SDS011;49182;50.788;7.318;2023-05-23T10:20:07;17.95;;;10.50;;
43124;SDS011;49182;50.788;7.318;2023-05-23T10:22:36;15.82;;;10.65;;
43124;SDS011;49182;50.788;7.318;2023-05-23T10:25:03;15.35;;;10.60;;
43124;SDS011;49182;50.788;7.318;2023-05-23T10:27:32;21.77;;;11.30;;
43124;SDS011;49182;50.788;7.318;2023-05-23T10:29:58;22.02;;;12.68;;
43124;SDS011;49182;50.788;7.318;2023-05-23T10:32:26;18.05;;;12.15;;
43124;SDS011;49182;50.788;7.318;2023-05-23T10:34:55;22.20;;;13.07;;
43124;SDS011;49182;50.788;7.318;2023-05-23T10:37:28;19.98;;;13.45;;
43124;SDS011;49182;50.788;7.318;2023-05-23T10:40:04;21.63;;;14.65;;
43124;SDS011;49182;50.788;7.318;2023-05-23T10:42:44;20.42;;;14.07;;
43124;SDS011;49182;50.788;7.318;2023-05-23T10:45:18;20.23;;;14.00;;
43124;SDS011;49182;50.788;7.318;2023-05-23T10:47:46;23.75;;;14.73;;
43124;SDS011;49182;50.788;7.318;2023-05-23T10:50:15;22.70;;;14.35;;
43124;SDS011;49182;50.788;7.318;2023-05-23T10:52:55;25.67;;;15.37;;
43124;SDS011;49182;50.788;7.318;2023-05-23T10:55:22;25.52;;;14.63;;
43124;SDS011;49182;50.788;7.318;2023-05-23T11:00:46;24.95;;;14.95;;
43124;SDS011;49182;50.788;7.318;2023-05-23T11:03:16;26.13;;;15.23;;
43124;SDS011;49182;50.788;7.318;2023-05-23T11:05:46;26.55;;;16.13;;
43124;SDS011;49182;50.788;7.318;2023-05-23T11:08:13;24.90;;;16.38;;
43124;SDS011;49182;50.788;7.318;2023-05-23T11:10:52;28.45;;;16.35;;
43124;SDS011;49182;50.788;7.318;2023-05-23T11:13:22;30.25;;;17.55;;
43124;SDS011;49182;50.788;7.318;2023-05-23T11:15:48;31.85;;;19.08;;
43124;SDS011;49182;50.788;7.318;2023-05-23T11:18:19;28.23;;;16.92;;
43124;SDS011;49182;50.788;7.318;2023-05-23T11:20:48;30.67;;;17.35;;
43124;SDS011;49182;50.788;7.318;2023-05-23T11:23:19;25.70;;;16.13;;
43124;SDS011;49182;50.788;7.318;2023-05-23T11:25:48;26.90;;;16.73;;
43124;SDS011;49182;50.788;7.318;2023-05-23T11:28:15;27.83;;;16.88;;
43124;SDS011;49182;50.788;7.318;2023-05-23T11:30:44;25.77;;;17.00;;
43124;SDS011;49182;50.788;7.318;2023-05-23T11:35:40;31.92;;;16.63;;
43124;SDS011;49182;50.788;7.318;2023-05-23T11:38:08;30.42;;;17.98;;
43124;SDS011;49182;50.788;7.318;2023-05-23T11:40:35;29.33;;;17.58;;
43124;SDS011;49182;50.788;7.318;2023-05-23T11:43:04;22.92;;;13.98;;
43124;SDS011;49182;50.788;7.318;2023-05-23T11:45:32;22.52;;;12.27;;
43124;SDS011;49182;50.788;7.318;2023-05-23T11:48:05;17.48;;;8.77;;
43124;SDS011;49182;50.788;7.318;2023-05-23T11:50:33;13.18;;;7.80;;
43124;SDS011;49182;50.788;7.318;2023-05-23T11:53:01;11.98;;;6.75;;
43124;SDS011;49182;50.788;7.318;2023-05-23T11:55:27;11.93;;;6.57;;
43124;SDS011;49182;50.788;7.318;2023-05-23T11:57:54;10.05;;;6.38;;
43124;SDS011;49182;50.788;7.318;2023-05-23T12:00:24;10.85;;;5.93;;
43124;SDS011;49182;50.788;7.318;2023-05-23T12:02:51;12.73;;;6.90;;
43124;SDS011;49182;50.788;7.318;2023-05-23T12:05:19;15.05;;;7.93;;
43124;SDS011;49182;50.788;7.318;2023-05-23T12:07:46;13.50;;;8.65;;
43124;SDS011;49182;50.788;7.318;2023-05-23T12:10:14;15.70;;;9.70;;
43124;SDS011;49182;50.788;7.318;2023-05-23T12:12:42;17.63;;;10.52;;
43124;SDS011;49182;50.788;7.318;2023-05-23T12:15:09;18.45;;;11.23;;
43124;SDS011;49182;50.788;7.318;2023-05-23T12:17:37;18.60;;;11.30;;
43124;SDS011;49182;50.788;7.318;2023-05-23T12:20:04;19.23;;;11.88;;
43124;SDS011;49182;50.788;7.318;2023-05-23T12:22:33;19.85;;;12.10;;
43124;SDS011;49182;50.788;7.318;2023-05-23T12:25:00;16.55;;;11.98;;
43124;SDS011;49182;50.788;7.318;2023-05-23T12:27:27;21.23;;;12.40;;
43124;SDS011;49182;50.788;7.318;2023-05-23T12:30:05;19.17;;;12.07;;
43124;SDS011;49182;50.788;7.318;2023-05-23T12:32:33;19.25;;;12.63;;
43124;SDS011;49182;50.788;7.318;2023-05-23T12:35:00;22.10;;;12.63;;
43124;SDS011;49182;50.788;7.318;2023-05-23T12:37:26;21.13;;;13.30;;
43124;SDS011;49182;50.788;7.318;2023-05-23T12:39:54;24.10;;;15.30;;
43124;SDS011;49182;50.788;7.318;2023-05-23T12:42:21;26.77;;;14.73;;
43124;SDS011;49182;50.788;7.318;2023-05-23T12:44:49;26.50;;;15.85;;
43124;SDS011;49182;50.788;7.318;2023-05-23T12:47:16;20.42;;;14.32;;
43124;SDS011;49182;50.788;7.318;2023-05-23T12:49:43;18.55;;;12.30;;
43124;SDS011;49182;50.788;7.318;2023-05-23T12:52:10;18.15;;;10.68;;
43124;SDS011;49182;50.788;7.318;2023-05-23T12:54:37;14.60;;;8.52;;
43124;SDS011;49182;50.788;7.318;2023-05-23T12:57:06;12.23;;;7.38;;
43124;SDS011;49182;50.788;7.318;2023-05-23T12:59:32;10.68;;;6.53;;
43124;SDS011;49182;50.788;7.318;2023-05-23T13:01:59;10.65;;;6.53;;
43124;SDS011;49182;50.788;7.318;2023-05-23T13:04:26;12.70;;;6.80;;
43124;SDS011;49182;50.788;7.318;2023-05-23T13:06:55;10.55;;;5.78;;
43124;SDS011;49182;50.788;7.318;2023-05-23T13:09:22;8.82;;;4.93;;
43124;SDS011;49182;50.788;7.318;2023-05-23T13:11:48;9.57;;;4.85;;
43124;SDS011;49182;50.788;7.318;2023-05-23T13:14:16;9.90;;;4.43;;
43124;SDS011;49182;50.788;7.318;2023-05-23T13:16:43;12.57;;;4.65;;
43124;SDS011;49182;50.788;7.318;2023-05-23T13:19:09;8.23;;;4.63;;
43124;SDS011;49182;50.788;7.318;2023-05-23T13:21:36;9.68;;;4.70;;
43124;SDS011;49182;50.788;7.318;2023-05-23T13:24:03;10.25;;;4.88;;
43124;SDS011;49182;50.788;7.318;2023-05-23T13:26:30;8.73;;;4.15;;
43124;SDS011;49182;50.788;7.318;2023-05-23T13:28:56;9.07;;;4.90;;
43124;SDS011;49182;50.788;7.318;2023-05-23T13:31:24;8.43;;;4.32;;
43124;SDS011;49182;50.788;7.318;2023-05-23T13:33:51;12.60;;;5.13;;
43124;SDS011;49182;50.788;7.318;2023-05-23T13:36:18;8.30;;;4.25;;
43124;SDS011;49182;50.788;7.318;2023-05-23T13:38:45;10.45;;;5.13;;
43124;SDS011;49182;50.788;7.318;2023-05-23T13:41:11;9.20;;;4.93;;
43124;SDS011;49182;50.788;7.318;2023-05-23T13:43:38;9.77;;;5.03;;
43124;SDS011;49182;50.788;7.318;2023-05-23T13:46:05;11.32;;;6.22;;
43124;SDS011;49182;50.788;7.318;2023-05-23T13:48:33;13.02;;;5.07;;
43124;SDS011;49182;50.788;7.318;2023-05-23T13:50:59;8.68;;;4.93;;
43124;SDS011;49182;50.788;7.318;2023-05-23T13:53:26;9.50;;;4.65;;
43124;SDS011;49182;50.788;7.318;2023-05-23T13:55:53;11.27;;;5.88;;
43124;SDS011;49182;50.788;7.318;2023-05-23T13:58:20;11.65;;;5.68;;
43124;SDS011;49182;50.788;7.318;2023-05-23T14:00:46;10.35;;;5.28;;
43124;SDS011;49182;50.788;7.318;2023-05-23T14:03:13;11.00;;;6.10;;
43124;SDS011;49182;50.788;7.318;2023-05-23T14:05:41;10.00;;;5.75;;
43124;SDS011;49182;50.788;7.318;2023-05-23T14:08:08;12.13;;;5.65;;
43124;SDS011;49182;50.788;7.318;2023-05-23T14:10:35;11.20;;;5.28;;
43124;SDS011;49182;50.788;7.318;2023-05-23T14:13:01;10.32;;;6.00;;
43124;SDS011;49182;50.788;7.318;2023-05-23T14:15:28;7.75;;;4.55;;
43124;SDS011;49182;50.788;7.318;2023-05-23T14:17:58;7.28;;;4.38;;
43124;SDS011;49182;50.788;7.318;2023-05-23T14:20:25;10.77;;;4.68;;
43124;SDS011;49182;50.788;7.318;2023-05-23T14:22:53;11.23;;;6.07;;
43124;SDS011;49182;50.788;7.318;2023-05-23T14:25:19;9.07;;;5.05;;
43124;SDS011;49182;50.788;7.318;2023-05-23T14:27:46;9.45;;;4.50;;
43124;SDS011;49182;50.788;7.318;2023-05-23T14:30:13;7.80;;;4.22;;
43124;SDS011;49182;50.788;7.318;2023-05-23T14:32:40;8.63;;;4.85;;
43124;SDS011;49182;50.788;7.318;2023-05-23T14:35:07;9.05;;;4.80;;
43124;SDS011;49182;50.788;7.318;2023-05-23T14:37:35;10.98;;;4.90;;
43124;SDS011;49182;50.788;7.318;2023-05-23T14:40:04;10.75;;;5.47;;
43124;SDS011;49182;50.788;7.318;2023-05-23T14:42:31;9.60;;;5.40;;
43124;SDS011;49182;50.788;7.318;2023-05-23T14:44:58;9.95;;;5.00;;
43124;SDS011;49182;50.788;7.318;2023-05-23T14:47:26;10.73;;;4.72;;
43124;SDS011;49182;50.788;7.318;2023-05-23T14:49:53;10.70;;;4.47;;
43124;SDS011;49182;50.788;7.318;2023-05-23T14:52:19;8.55;;;4.88;;